createdAt,value
2017-09-20T00:01:06.106Z,11.39
2017-09-20T00:02:14.969Z,11.35
2017-09-20T00:03:23.511Z,11.38
2017-09-20T00:04:32.696Z,11.38
2017-09-20T00:05:41.888Z,11.45
2017-09-20T00:06:50.427Z,11.41
2017-09-20T00:07:58.968Z,11.38
2017-09-20T00:09:07.836Z,11.34
2017-09-20T00:10:16.696Z,11.33
2017-09-20T00:11:26.206Z,11.39
2017-09-20T00:12:34.747Z,11.24
2017-09-20T00:13:43.289Z,11.35
2017-09-20T00:14:52.158Z,11.31
2017-09-20T00:16:01.023Z,11.26
2017-09-20T00:17:10.210Z,11.3
2017-09-20T00:18:18.749Z,11.24
2017-09-20T00:19:27.616Z,11.24
2017-09-20T00:20:36.157Z,11.27
2017-09-20T00:21:44.698Z,11.2
2017-09-20T00:22:53.884Z,11.27
2017-09-20T00:24:03.552Z,11.21
2017-09-20T00:25:12.093Z,11.28
2017-09-20T00:26:20.634Z,11.21
2017-09-20T00:27:29.176Z,11.23
2017-09-20T00:28:38.040Z,11.18
2017-09-20T00:29:46.577Z,11.24
2017-09-20T00:30:55.116Z,11.26
2017-09-20T00:32:03.981Z,11.2
2017-09-20T00:33:12.524Z,11.23
2017-09-20T00:34:21.062Z,11.26
2017-09-20T00:35:29.924Z,11.18
2017-09-20T00:36:38.795Z,11.13
2017-09-20T00:37:47.338Z,11.23
2017-09-20T00:38:56.200Z,11.16
2017-09-20T00:40:05.386Z,11.21
2017-09-20T00:41:14.247Z,11.18
2017-09-20T00:42:22.788Z,11.16
2017-09-20T00:43:31.650Z,11.21
2017-09-20T00:44:40.192Z,11.16
2017-09-20T00:45:48.734Z,11.12
2017-09-20T00:46:57.278Z,11.09
2017-09-20T00:48:06.146Z,11.12
2017-09-20T00:49:14.688Z,11.16
2017-09-20T00:50:23.873Z,11.06
2017-09-20T00:51:33.060Z,11.08
2017-09-20T00:52:42.700Z,11.02
2017-09-20T00:53:51.565Z,11.06
2017-09-20T00:55:00.104Z,11.06
2017-09-20T00:56:08.645Z,10.98
2017-09-20T00:57:17.183Z,11
2017-09-20T00:58:26.373Z,11.02
2017-09-20T00:59:34.914Z,11.03
2017-09-20T01:00:43.454Z,11
2017-09-20T01:01:51.991Z,10.98
2017-09-20T01:03:00.528Z,11.03
2017-09-20T01:04:09.068Z,11.02
2017-09-20T01:05:17.934Z,10.98
2017-09-20T01:06:26.474Z,11
2017-09-20T01:07:35.338Z,11.03
2017-09-20T01:08:43.879Z,11
2017-09-20T01:09:52.743Z,11
2017-09-20T01:11:01.607Z,10.95
2017-09-20T01:12:10.468Z,10.97
2017-09-20T01:13:19.009Z,10.97
2017-09-20T01:14:27.871Z,11
2017-09-20T01:15:36.739Z,11.05
2017-09-20T01:16:45.924Z,10.98
2017-09-20T01:17:54.464Z,11.03
2017-09-20T01:19:03.007Z,10.98
2017-09-20T01:20:11.549Z,10.97
2017-09-20T01:21:20.092Z,11.02
2017-09-20T01:22:28.634Z,10.98
2017-09-20T01:23:37.182Z,10.92
2017-09-20T01:24:46.372Z,10.97
2017-09-20T01:25:55.236Z,10.94
2017-09-20T01:27:03.781Z,10.92
2017-09-20T01:28:12.646Z,11.02
2017-09-20T01:29:21.190Z,11.03
2017-09-20T01:30:29.734Z,10.95
2017-09-20T01:31:38.596Z,10.95
2017-09-20T01:32:47.462Z,11.06
2017-09-20T01:33:56.002Z,10.92
2017-09-20T01:35:04.870Z,11.02
2017-09-20T01:36:13.730Z,10.95
2017-09-20T01:37:22.270Z,11
2017-09-20T01:38:31.134Z,10.94
2017-09-20T01:39:39.677Z,11
2017-09-20T01:40:48.220Z,11.02
2017-09-20T01:41:57.411Z,11.08
2017-09-20T01:43:05.955Z,11.03
2017-09-20T01:44:14.494Z,11.1
2017-09-20T01:45:23.356Z,11.09
2017-09-20T01:46:31.897Z,11.09
2017-09-20T01:47:41.081Z,11.16
2017-09-20T01:48:49.622Z,11.13
2017-09-20T01:49:58.805Z,11.16
2017-09-20T01:51:07.672Z,11.09
2017-09-20T01:52:16.214Z,11.08
2017-09-20T01:53:24.753Z,11.09
2017-09-20T01:54:33.940Z,11.1
2017-09-20T01:55:42.481Z,11.12
2017-09-20T01:56:51.340Z,11.09
2017-09-20T01:58:00.206Z,11.06
2017-09-20T01:59:09.399Z,11.08
2017-09-20T02:00:17.940Z,11.09
2017-09-20T02:01:26.810Z,11.06
2017-09-20T02:02:36.001Z,11.12
2017-09-20T02:03:44.544Z,11.03
2017-09-20T02:04:53.088Z,11.02
2017-09-20T02:06:01.953Z,11.02
2017-09-20T02:07:10.824Z,10.98
2017-09-20T02:08:20.010Z,11.03
2017-09-20T02:09:28.549Z,10.98
2017-09-20T02:10:37.416Z,10.92
2017-09-20T02:11:45.954Z,11.05
2017-09-20T02:12:55.137Z,11
2017-09-20T02:14:04.005Z,10.97
2017-09-20T02:15:12.873Z,10.95
2017-09-20T02:16:21.415Z,10.97
2017-09-20T02:17:29.955Z,10.91
2017-09-20T02:18:38.821Z,10.97
2017-09-20T02:19:47.360Z,10.88
2017-09-20T02:20:56.222Z,10.9
2017-09-20T02:22:04.766Z,10.9
2017-09-20T02:23:13.305Z,10.94
2017-09-20T02:24:21.847Z,10.77
2017-09-20T02:25:30.710Z,10.84
2017-09-20T02:26:39.576Z,10.76
2017-09-20T02:27:48.120Z,10.76
2017-09-20T02:28:56.987Z,10.8
2017-09-20T02:30:05.526Z,10.77
2017-09-20T02:31:14.715Z,10.76
2017-09-20T02:32:23.256Z,10.77
2017-09-20T02:33:31.792Z,10.77
2017-09-20T02:34:40.336Z,10.76
2017-09-20T02:35:49.202Z,10.76
2017-09-20T02:36:58.067Z,10.73
2017-09-20T02:38:06.930Z,10.75
2017-09-20T02:39:15.473Z,10.77
2017-09-20T02:40:24.658Z,10.73
2017-09-20T02:41:33.521Z,10.77
2017-09-20T02:42:42.384Z,10.77
2017-09-20T02:43:50.922Z,10.76
2017-09-20T02:44:59.464Z,10.69
2017-09-20T02:46:08.651Z,10.76
2017-09-20T02:47:17.190Z,10.79
2017-09-20T02:48:25.730Z,10.8
2017-09-20T02:49:34.270Z,10.8
2017-09-20T02:50:42.813Z,10.85
2017-09-20T02:51:52.000Z,10.83
2017-09-20T02:53:00.861Z,10.91
2017-09-20T02:54:10.051Z,10.91
2017-09-20T02:55:19.217Z,10.83
2017-09-20T02:56:28.401Z,10.85
2017-09-20T02:57:36.942Z,10.9
2017-09-20T02:58:45.809Z,10.88
2017-09-20T02:59:54.345Z,10.95
2017-09-20T03:01:02.884Z,10.94
2017-09-20T03:02:12.073Z,10.97
2017-09-20T03:03:20.932Z,10.95
2017-09-20T03:04:29.475Z,11.08
2017-09-20T03:05:38.011Z,10.98
2017-09-20T03:06:46.551Z,11.02
2017-09-20T03:07:55.092Z,11.02
2017-09-20T03:09:04.282Z,10.91
2017-09-20T03:10:13.791Z,11.03
2017-09-20T03:11:22.331Z,11.06
2017-09-20T03:12:31.196Z,11.05
2017-09-20T03:13:39.735Z,11.12
2017-09-20T03:14:48.598Z,11
2017-09-20T03:15:57.782Z,11
2017-09-20T03:17:07.293Z,11
2017-09-20T03:18:15.837Z,11.1
2017-09-20T03:19:24.703Z,11.03
2017-09-20T03:20:33.562Z,11.05
2017-09-20T03:21:42.106Z,11.21
2017-09-20T03:22:50.970Z,11.09
2017-09-20T03:23:59.934Z,11.1
2017-09-20T03:25:08.803Z,11.1
2017-09-20T03:26:17.343Z,11.1
2017-09-20T03:27:26.206Z,11.12
2017-09-20T03:28:35.073Z,11.23
2017-09-20T03:29:43.616Z,11.18
2017-09-20T03:30:52.161Z,11.21
2017-09-20T03:32:01.353Z,11.2
2017-09-20T03:33:10.218Z,11.21
2017-09-20T03:34:18.759Z,11.2
2017-09-20T03:35:27.622Z,11.28
2017-09-20T03:36:36.163Z,11.2
2017-09-20T03:37:45.351Z,11.23
2017-09-20T03:38:53.892Z,11.24
2017-09-20T03:40:02.432Z,11.24
2017-09-20T03:41:10.981Z,11.24
2017-09-20T03:42:20.173Z,11.33
2017-09-20T03:43:28.713Z,11.33
2017-09-20T03:44:37.252Z,11.33
2017-09-20T03:45:46.116Z,11.34
2017-09-20T03:46:54.655Z,11.31
2017-09-20T03:48:03.520Z,11.34
2017-09-20T03:49:12.385Z,11.28
2017-09-20T03:50:20.927Z,11.34
2017-09-20T03:51:30.160Z,11.24
2017-09-20T03:52:39.346Z,11.27
2017-09-20T03:53:47.887Z,11.33
2017-09-20T03:54:56.782Z,11.3
2017-09-20T03:56:05.290Z,11.35
2017-09-20T03:57:13.833Z,11.31
2017-09-20T03:58:22.692Z,11.27
2017-09-20T03:59:31.881Z,11.35
2017-09-20T04:00:40.747Z,11.38
2017-09-20T04:01:49.289Z,11.42
2017-09-20T04:02:58.151Z,11.38
2017-09-20T04:04:06.693Z,11.41
2017-09-20T04:05:15.560Z,11.39
2017-09-20T04:06:24.427Z,11.52
2017-09-20T04:07:33.291Z,11.41
2017-09-20T04:08:42.152Z,11.43
2017-09-20T04:09:50.697Z,11.48
2017-09-20T04:10:59.238Z,11.52
2017-09-20T04:12:07.777Z,11.43
2017-09-20T04:13:16.643Z,11.49
2017-09-20T04:14:25.186Z,11.53
2017-09-20T04:15:34.048Z,11.53
2017-09-20T04:16:42.908Z,11.56
2017-09-20T04:17:51.451Z,11.52
2017-09-20T04:18:59.991Z,11.56
2017-09-20T04:20:08.895Z,11.59
2017-09-20T04:21:17.438Z,11.66
2017-09-20T04:22:25.978Z,11.6
2017-09-20T04:23:34.520Z,11.6
2017-09-20T04:24:43.064Z,11.52
2017-09-20T04:25:51.604Z,11.53
2017-09-20T04:27:00.146Z,11.6
2017-09-20T04:28:09.343Z,11.59
2017-09-20T04:29:17.885Z,11.57
2017-09-20T04:30:26.747Z,11.63
2017-09-20T04:31:35.935Z,11.61
2017-09-20T04:32:44.800Z,11.66
2017-09-20T04:33:53.348Z,11.63
2017-09-20T04:35:02.219Z,11.66
2017-09-20T04:36:11.087Z,11.71
2017-09-20T04:37:19.947Z,11.67
2017-09-20T04:38:28.486Z,11.61
2017-09-20T04:39:37.996Z,11.66
2017-09-20T04:40:46.862Z,11.67
2017-09-20T04:41:55.403Z,11.68
2017-09-20T04:43:04.268Z,11.67
2017-09-20T04:44:13.130Z,11.68
2017-09-20T04:45:21.674Z,11.61
2017-09-20T04:46:30.541Z,11.64
2017-09-20T04:47:39.406Z,11.59
2017-09-20T04:48:47.945Z,11.71
2017-09-20T04:49:56.809Z,11.61
2017-09-20T04:51:05.349Z,11.61
2017-09-20T04:52:14.546Z,11.64
2017-09-20T04:53:23.734Z,11.66
2017-09-20T04:54:32.593Z,11.64
2017-09-20T04:55:41.459Z,11.63
2017-09-20T04:56:50.004Z,11.64
2017-09-20T04:57:58.874Z,11.63
2017-09-20T04:59:07.418Z,11.67
2017-09-20T05:00:15.959Z,11.67
2017-09-20T05:01:24.498Z,11.66
2017-09-20T05:02:33.360Z,11.64
2017-09-20T05:03:42.234Z,11.66
2017-09-20T05:04:51.100Z,11.7
2017-09-20T05:06:00.294Z,11.67
2017-09-20T05:07:08.836Z,11.68
2017-09-20T05:08:17.374Z,11.78
2017-09-20T05:09:27.866Z,11.79
2017-09-20T05:10:36.778Z,11.76
2017-09-20T05:11:45.320Z,11.78
2017-09-20T05:12:54.522Z,11.79
2017-09-20T05:14:03.063Z,11.78
2017-09-20T05:15:11.937Z,11.78
2017-09-20T05:16:20.480Z,11.82
2017-09-20T05:17:29.345Z,11.84
2017-09-20T05:18:37.887Z,11.78
2017-09-20T05:19:47.082Z,11.73
2017-09-20T05:20:55.620Z,11.75
2017-09-20T05:22:04.485Z,11.88
2017-09-20T05:23:13.349Z,11.78
2017-09-20T05:24:22.213Z,11.85
2017-09-20T05:25:31.401Z,11.84
2017-09-20T05:26:40.588Z,11.81
2017-09-20T05:27:49.130Z,11.81
2017-09-20T05:28:57.995Z,11.75
2017-09-20T05:30:06.860Z,11.88
2017-09-20T05:31:16.045Z,11.82
2017-09-20T05:32:25.230Z,11.81
2017-09-20T05:33:33.772Z,11.78
2017-09-20T05:34:42.315Z,11.88
2017-09-20T05:35:50.856Z,11.88
2017-09-20T05:36:59.720Z,11.95
2017-09-20T05:38:08.585Z,11.89
2017-09-20T05:39:17.451Z,11.81
2017-09-20T05:40:26.342Z,11.91
2017-09-20T05:41:34.886Z,12.04
2017-09-20T05:42:44.070Z,12.03
2017-09-20T05:43:52.930Z,12
2017-09-20T05:45:01.468Z,12
2017-09-20T05:46:10.011Z,12.03
2017-09-20T05:47:18.875Z,12.05
2017-09-20T05:48:28.065Z,11.95
2017-09-20T05:49:36.930Z,12.03
2017-09-20T05:50:46.114Z,12.01
2017-09-20T05:51:54.986Z,12.07
2017-09-20T05:53:04.175Z,12.04
2017-09-20T05:54:13.044Z,12.03
2017-09-20T05:55:21.906Z,12.01
2017-09-20T05:56:30.770Z,12.04
2017-09-20T05:57:39.314Z,12.03
2017-09-20T05:58:47.856Z,12.1
2017-09-20T05:59:57.047Z,12.05
2017-09-20T06:01:05.910Z,12
2017-09-20T06:02:15.099Z,12.01
2017-09-20T06:03:23.643Z,12.05
2017-09-20T06:04:32.510Z,12.07
2017-09-20T06:05:41.376Z,12.08
2017-09-20T06:06:50.244Z,12.04
2017-09-20T06:07:59.106Z,12.1
2017-09-20T06:09:07.649Z,12.15
2017-09-20T06:10:16.189Z,12.11
2017-09-20T06:11:25.059Z,12.18
2017-09-20T06:12:34.242Z,12.19
2017-09-20T06:13:43.108Z,12.25
2017-09-20T06:14:51.650Z,12.28
2017-09-20T06:16:00.514Z,12.23
2017-09-20T06:17:09.054Z,12.22
2017-09-20T06:18:17.598Z,12.28
2017-09-20T06:19:26.460Z,12.28
2017-09-20T06:20:35.004Z,12.26
2017-09-20T06:21:43.870Z,12.29
2017-09-20T06:22:53.058Z,12.37
2017-09-20T06:24:02.251Z,12.41
2017-09-20T06:25:11.440Z,12.44
2017-09-20T06:26:20.306Z,12.53
2017-09-20T06:27:29.169Z,12.52
2017-09-20T06:28:37.709Z,12.51
2017-09-20T06:29:46.454Z,12.59
2017-09-20T06:30:54.997Z,12.55
2017-09-20T06:32:03.861Z,12.58
2017-09-20T06:33:12.727Z,12.7
2017-09-20T06:34:21.269Z,12.73
2017-09-20T06:35:30.010Z,12.74
2017-09-20T06:36:38.879Z,12.71
2017-09-20T06:37:47.430Z,12.77
2017-09-20T06:38:55.970Z,12.8
2017-09-20T06:40:04.833Z,12.86
2017-09-20T06:41:14.016Z,12.89
2017-09-20T06:42:22.560Z,12.96
2017-09-20T06:43:31.101Z,12.94
2017-09-20T06:44:40.291Z,13.03
2017-09-20T06:45:48.831Z,13.1
2017-09-20T06:46:57.726Z,13.09
2017-09-20T06:48:06.591Z,13.14
2017-09-20T06:49:15.458Z,13.14
2017-09-20T06:50:24.004Z,13.16
2017-09-20T06:51:32.544Z,13.27
2017-09-20T06:52:41.735Z,13.29
2017-09-20T06:53:50.725Z,13.27
2017-09-20T06:54:59.587Z,13.32
2017-09-20T06:56:08.454Z,13.42
2017-09-20T06:57:17.340Z,13.4
2017-09-20T06:58:26.204Z,13.47
2017-09-20T06:59:34.747Z,13.53
2017-09-20T07:00:43.613Z,13.63
2017-09-20T07:01:52.159Z,13.6
2017-09-20T07:03:00.703Z,13.62
2017-09-20T07:04:09.895Z,13.65
2017-09-20T07:05:18.762Z,13.66
2017-09-20T07:06:27.310Z,13.76
2017-09-20T07:07:36.174Z,13.75
2017-09-20T07:08:44.716Z,13.73
2017-09-20T07:09:53.256Z,13.87
2017-09-20T07:11:01.801Z,13.86
2017-09-20T07:12:10.383Z,13.91
2017-09-20T07:13:19.247Z,13.9
2017-09-20T07:14:28.437Z,14.01
2017-09-20T07:15:37.630Z,13.97
2017-09-20T07:16:46.499Z,14.02
2017-09-20T07:17:55.038Z,14.05
2017-09-20T07:19:03.904Z,14.05
2017-09-20T07:20:12.769Z,13.99
2017-09-20T07:21:21.959Z,14.11
2017-09-20T07:22:31.721Z,14.03
2017-09-20T07:23:40.915Z,14.19
2017-09-20T07:24:49.784Z,14.15
2017-09-20T07:25:58.972Z,14.3
2017-09-20T07:27:07.999Z,14.31
2017-09-20T07:28:16.836Z,14.44
2017-09-20T07:29:25.387Z,14.41
2017-09-20T07:30:33.932Z,14.49
2017-09-20T07:31:42.801Z,14.53
2017-09-20T07:32:51.354Z,14.57
2017-09-20T07:33:59.931Z,14.57
2017-09-20T07:35:09.119Z,14.6
2017-09-20T07:36:17.667Z,14.71
2017-09-20T07:37:26.207Z,14.66
2017-09-20T07:38:35.221Z,14.71
2017-09-20T07:39:44.093Z,14.89
2017-09-20T07:40:52.644Z,14.86
2017-09-20T07:42:01.512Z,14.87
2017-09-20T07:43:10.382Z,14.97
2017-09-20T07:44:19.245Z,14.94
2017-09-20T07:45:27.791Z,15
2017-09-20T07:46:36.638Z,15
2017-09-20T07:47:45.504Z,15.07
2017-09-20T07:48:54.047Z,15.04
2017-09-20T07:50:02.606Z,15.08
2017-09-20T07:51:11.554Z,15.13
2017-09-20T07:52:20.750Z,15.2
2017-09-20T07:53:29.615Z,15.16
2017-09-20T07:54:38.159Z,15.31
2017-09-20T07:55:47.848Z,15.31
2017-09-20T07:56:57.043Z,15.44
2017-09-20T07:58:05.912Z,15.51
2017-09-20T07:59:14.779Z,15.55
2017-09-20T08:00:23.649Z,15.52
2017-09-20T08:01:32.514Z,15.63
2017-09-20T08:02:41.058Z,15.67
2017-09-20T08:03:49.944Z,15.63
2017-09-20T08:04:58.795Z,15.75
2017-09-20T08:06:07.343Z,15.71
2017-09-20T08:07:15.890Z,15.71
2017-09-20T08:08:25.088Z,15.81
2017-09-20T08:09:33.634Z,15.83
2017-09-20T08:10:42.652Z,15.77
2017-09-20T08:11:51.576Z,15.81
2017-09-20T08:13:00.448Z,15.86
2017-09-20T08:14:09.641Z,15.81
2017-09-20T08:15:18.186Z,15.7
2017-09-20T08:16:27.059Z,15.77
2017-09-20T08:17:35.927Z,15.74
2017-09-20T08:18:44.800Z,15.78
2017-09-20T08:19:53.664Z,15.77
2017-09-20T08:21:02.209Z,15.74
2017-09-20T08:22:11.083Z,15.78
2017-09-20T08:23:19.955Z,15.74
2017-09-20T08:24:28.872Z,15.75
2017-09-20T08:25:37.751Z,15.8
2017-09-20T08:26:46.481Z,15.74
2017-09-20T08:27:55.620Z,15.77
2017-09-20T08:29:04.492Z,15.81
2017-09-20T08:30:13.367Z,15.78
2017-09-20T08:31:22.558Z,15.78
2017-09-20T08:32:31.750Z,15.92
2017-09-20T08:33:40.616Z,15.93
2017-09-20T08:34:49.161Z,16.04
2017-09-20T08:35:57.984Z,16.02
2017-09-20T08:37:07.063Z,16.06
2017-09-20T08:38:15.609Z,16.06
2017-09-20T08:39:24.155Z,16.18
2017-09-20T08:40:33.346Z,16.13
2017-09-20T08:41:42.217Z,16.06
2017-09-20T08:42:51.088Z,16.07
2017-09-20T08:43:59.634Z,16.08
2017-09-20T08:45:08.506Z,16.02
2017-09-20T08:46:17.389Z,15.96
2017-09-20T08:47:25.933Z,15.96
2017-09-20T08:48:34.742Z,15.81
2017-09-20T08:49:43.701Z,15.8
2017-09-20T08:50:52.717Z,15.68
2017-09-20T08:52:01.585Z,15.81
2017-09-20T08:53:10.150Z,15.78
2017-09-20T08:54:19.342Z,15.68
2017-09-20T08:55:27.949Z,15.71
2017-09-20T08:56:37.563Z,15.68
2017-09-20T08:57:46.113Z,15.63
2017-09-20T08:58:54.655Z,15.6
2017-09-20T09:00:03.292Z,15.63
2017-09-20T09:01:12.156Z,15.6
2017-09-20T09:02:21.352Z,15.68
2017-09-20T09:03:30.220Z,15.67
2017-09-20T09:04:39.087Z,15.77
2017-09-20T09:05:47.959Z,15.67
2017-09-20T09:06:56.833Z,15.78
2017-09-20T09:08:05.700Z,15.71
2017-09-20T09:09:14.345Z,15.84
2017-09-20T09:10:22.887Z,15.75
2017-09-20T09:11:31.430Z,15.95
2017-09-20T09:12:39.970Z,16.08
2017-09-20T09:13:49.164Z,16.16
2017-09-20T09:14:57.710Z,16.18
2017-09-20T09:16:06.258Z,16.4
2017-09-20T09:17:15.127Z,16.48
2017-09-20T09:18:23.996Z,16.63
2017-09-20T09:19:33.188Z,16.66
2017-09-20T09:20:41.734Z,16.77
2017-09-20T09:21:50.605Z,16.88
2017-09-20T09:22:59.799Z,16.85
2017-09-20T09:24:08.669Z,16.87
2017-09-20T09:25:17.213Z,16.84
2017-09-20T09:26:25.761Z,16.88
2017-09-20T09:27:34.948Z,16.91
2017-09-20T09:28:43.491Z,16.9
2017-09-20T09:29:52.048Z,16.91
2017-09-20T09:31:00.923Z,16.81
2017-09-20T09:32:10.120Z,16.74
2017-09-20T09:33:19.314Z,16.65
2017-09-20T09:34:28.015Z,16.62
2017-09-20T09:35:37.611Z,16.59
2017-09-20T09:36:46.368Z,16.52
2017-09-20T09:37:55.243Z,16.49
2017-09-20T09:39:04.113Z,16.4
2017-09-20T09:40:12.983Z,16.32
2017-09-20T09:41:21.528Z,16.37
2017-09-20T09:42:30.394Z,16.42
2017-09-20T09:43:38.939Z,16.42
2017-09-20T09:44:48.132Z,16.47
2017-09-20T09:45:57.002Z,16.49
2017-09-20T09:47:06.376Z,16.47
2017-09-20T09:48:14.924Z,16.49
2017-09-20T09:49:23.472Z,16.49
2017-09-20T09:50:32.015Z,16.65
2017-09-20T09:51:40.883Z,16.66
2017-09-20T09:52:49.750Z,16.66
2017-09-20T09:53:58.296Z,16.73
2017-09-20T09:55:07.160Z,16.77
2017-09-20T09:56:15.706Z,16.8
2017-09-20T09:57:24.572Z,16.88
2017-09-20T09:58:33.763Z,17
2017-09-20T09:59:42.312Z,17.03
2017-09-20T10:00:51.177Z,17.12
2017-09-20T10:02:00.046Z,17.13
2017-09-20T10:03:09.558Z,17.28
2017-09-20T10:04:18.099Z,17.31
2017-09-20T10:05:26.646Z,17.32
2017-09-20T10:06:35.188Z,17.46
2017-09-20T10:07:43.737Z,17.46
2017-09-20T10:08:52.931Z,17.57
2017-09-20T10:10:01.480Z,17.6
2017-09-20T10:11:10.349Z,17.65
2017-09-20T10:12:18.895Z,17.63
2017-09-20T10:13:27.444Z,17.71
2017-09-20T10:14:36.635Z,17.77
2017-09-20T10:15:45.504Z,17.71
2017-09-20T10:16:54.695Z,17.74
2017-09-20T10:18:03.572Z,17.8
2017-09-20T10:19:13.094Z,17.83
2017-09-20T10:20:22.289Z,17.81
2017-09-20T10:21:31.480Z,17.84
2017-09-20T10:22:40.028Z,17.86
2017-09-20T10:23:49.545Z,17.96
2017-09-20T10:24:58.090Z,18.02
2017-09-20T10:26:06.642Z,18.19
2017-09-20T10:27:15.513Z,18.26
2017-09-20T10:28:24.381Z,18.38
2017-09-20T10:29:32.926Z,18.49
2017-09-20T10:30:41.473Z,18.53
2017-09-20T10:31:50.023Z,18.5
2017-09-20T10:32:58.572Z,18.69
2017-09-20T10:34:07.444Z,18.76
2017-09-20T10:35:16.316Z,18.76
2017-09-20T10:36:24.861Z,18.72
2017-09-20T10:37:34.060Z,18.74
2017-09-20T10:38:43.253Z,18.84
2017-09-20T10:39:51.802Z,18.84
2017-09-20T10:41:00.672Z,18.93
2017-09-20T10:42:09.562Z,18.91
2017-09-20T10:43:19.081Z,18.87
2017-09-20T10:44:28.275Z,19.02
2017-09-20T10:45:36.822Z,19.02
2017-09-20T10:46:45.373Z,19.02
2017-09-20T10:47:54.241Z,19.07
2017-09-20T10:49:03.113Z,19.12
2017-09-20T10:50:11.661Z,19.13
2017-09-20T10:51:20.869Z,19.19
2017-09-20T10:52:29.740Z,19.27
2017-09-20T10:53:38.297Z,19.38
2017-09-20T10:54:47.169Z,19.4
2017-09-20T10:55:56.684Z,19.47
2017-09-20T10:57:05.557Z,19.43
2017-09-20T10:58:14.428Z,19.46
2017-09-20T10:59:23.297Z,19.56
2017-09-20T11:00:32.169Z,19.61
2017-09-20T11:01:41.041Z,19.63
2017-09-20T11:02:49.591Z,19.71
2017-09-20T11:03:58.140Z,19.68
2017-09-20T11:05:07.009Z,19.63
2017-09-20T11:06:15.879Z,19.64
2017-09-20T11:07:24.746Z,19.63
2017-09-20T11:08:33.292Z,19.67
2017-09-20T11:09:42.182Z,19.72
2017-09-20T11:10:50.729Z,19.75
2017-09-20T11:11:59.273Z,19.75
2017-09-20T11:13:07.825Z,19.71
2017-09-20T11:14:16.702Z,19.64
2017-09-20T11:15:25.571Z,19.64
2017-09-20T11:16:34.122Z,19.49
2017-09-20T11:17:42.995Z,19.42
2017-09-20T11:18:51.542Z,19.45
2017-09-20T11:20:00.473Z,19.49
2017-09-20T11:21:09.023Z,19.37
2017-09-20T11:22:17.905Z,19.35
2017-09-20T11:23:26.455Z,19.35
2017-09-20T11:24:35.323Z,19.37
2017-09-20T11:25:43.866Z,19.37
2017-09-20T11:26:52.734Z,19.25
2017-09-20T11:28:01.280Z,19.28
2017-09-20T11:29:09.827Z,19.25
2017-09-20T11:30:18.702Z,19.31
2017-09-20T11:31:27.578Z,19.3
2017-09-20T11:32:36.125Z,19.31
2017-09-20T11:33:44.671Z,19.24
2017-09-20T11:34:53.215Z,19.24
2017-09-20T11:36:02.729Z,19.27
2017-09-20T11:37:11.602Z,19.16
2017-09-20T11:38:20.181Z,19.19
2017-09-20T11:39:28.697Z,19.16
2017-09-20T11:40:37.568Z,19.28
2017-09-20T11:41:46.114Z,19.28
2017-09-20T11:42:55.312Z,19.34
2017-09-20T11:44:04.180Z,19.25
2017-09-20T11:45:13.051Z,19.3
2017-09-20T11:46:21.598Z,19.2
2017-09-20T11:47:30.144Z,19.23
2017-09-20T11:48:39.015Z,19.19
2017-09-20T11:49:47.561Z,19.2
2017-09-20T11:50:56.759Z,19.23
2017-09-20T11:52:05.953Z,19.12
2017-09-20T11:53:14.823Z,19.23
2017-09-20T11:54:23.373Z,19.16
2017-09-20T11:55:32.244Z,19.16
2017-09-20T11:56:41.122Z,19.19
2017-09-20T11:57:49.995Z,19.17
2017-09-20T11:58:58.541Z,19.09
2017-09-20T12:00:07.408Z,19.27
2017-09-20T12:01:16.277Z,19.23
2017-09-20T12:02:24.822Z,19.23
2017-09-20T12:03:33.372Z,19.23
2017-09-20T12:04:41.919Z,19.2
2017-09-20T12:05:50.795Z,19.25
2017-09-20T12:06:59.343Z,19.23
2017-09-20T12:08:08.215Z,19.17
2017-09-20T12:09:17.088Z,19.17
2017-09-20T12:10:25.999Z,19.12
2017-09-20T12:11:34.546Z,18.99
2017-09-20T12:12:43.094Z,19.07
2017-09-20T12:13:51.967Z,18.93
2017-09-20T12:15:00.518Z,18.94
2017-09-20T12:16:09.067Z,18.9
2017-09-20T12:17:17.613Z,18.87
2017-09-20T12:18:26.163Z,18.84
2017-09-20T12:19:35.030Z,18.81
2017-09-20T12:20:43.576Z,18.82
2017-09-20T12:21:52.457Z,18.81
2017-09-20T12:23:01.003Z,18.75
2017-09-20T12:24:09.876Z,18.75
2017-09-20T12:25:18.747Z,18.75
2017-09-20T12:26:27.620Z,18.82
2017-09-20T12:27:36.168Z,18.84
2017-09-20T12:28:44.716Z,18.82
2017-09-20T12:29:53.273Z,18.81
2017-09-20T12:31:02.146Z,18.84
2017-09-20T12:32:11.018Z,18.86
2017-09-20T12:33:20.539Z,18.82
2017-09-20T12:34:29.088Z,18.86
2017-09-20T12:35:37.957Z,18.93
2017-09-20T12:36:46.506Z,18.87
2017-09-20T12:37:55.373Z,18.9
2017-09-20T12:39:04.241Z,18.9
2017-09-20T12:40:13.111Z,18.87
2017-09-20T12:41:21.991Z,18.89
2017-09-20T12:42:30.865Z,18.84
2017-09-20T12:43:39.741Z,18.81
2017-09-20T12:44:48.936Z,18.69
2017-09-20T12:45:57.483Z,18.71
2017-09-20T12:47:06.029Z,18.72
2017-09-20T12:48:14.637Z,18.75
2017-09-20T12:49:23.509Z,18.71
2017-09-20T12:50:32.704Z,18.61
2017-09-20T12:51:41.255Z,18.61
2017-09-20T12:52:50.131Z,18.57
2017-09-20T12:53:58.673Z,18.51
2017-09-20T12:55:07.422Z,18.49
2017-09-20T12:56:16.618Z,18.5
2017-09-20T12:57:25.504Z,18.45
2017-09-20T12:58:34.676Z,18.47
2017-09-20T12:59:43.223Z,18.5
2017-09-20T13:00:52.075Z,18.44
2017-09-20T13:02:01.004Z,18.42
2017-09-20T13:03:10.196Z,18.41
2017-09-20T13:04:19.064Z,18.41
2017-09-20T13:05:27.614Z,18.39
2017-09-20T13:06:36.483Z,18.42
2017-09-20T13:07:45.679Z,18.38
2017-09-20T13:08:54.898Z,18.44
2017-09-20T13:10:03.445Z,18.44
2017-09-20T13:11:12.331Z,18.49
2017-09-20T13:12:21.526Z,18.51
2017-09-20T13:13:31.042Z,18.57
2017-09-20T13:14:39.593Z,18.5
2017-09-20T13:15:48.460Z,18.63
2017-09-20T13:16:57.006Z,18.54
2017-09-20T13:18:06.200Z,18.71
2017-09-20T13:19:14.752Z,18.68
2017-09-20T13:20:23.948Z,18.75
2017-09-20T13:21:33.141Z,18.66
2017-09-20T13:22:42.010Z,18.75
2017-09-20T13:23:50.913Z,18.79
2017-09-20T13:24:59.782Z,18.75
2017-09-20T13:26:08.332Z,18.78
2017-09-20T13:27:16.879Z,18.89
2017-09-20T13:28:25.753Z,18.79
2017-09-20T13:29:34.629Z,18.81
2017-09-20T13:30:43.180Z,18.82
2017-09-20T13:31:52.694Z,18.82
2017-09-20T13:33:01.245Z,18.81
2017-09-20T13:34:09.792Z,18.79
2017-09-20T13:35:18.662Z,18.72
2017-09-20T13:36:27.213Z,18.72
2017-09-20T13:37:36.083Z,18.78
2017-09-20T13:38:44.628Z,18.82
2017-09-20T13:39:53.523Z,18.78
2017-09-20T13:41:02.395Z,18.82
2017-09-20T13:42:11.019Z,18.86
2017-09-20T13:43:20.508Z,18.94
2017-09-20T13:44:29.410Z,18.93
2017-09-20T13:45:38.282Z,18.94
2017-09-20T13:47:19.225Z,18.87
2017-09-20T13:48:28.108Z,18.91
2017-09-20T13:49:36.981Z,18.99
2017-09-20T13:50:45.863Z,19.05
2017-09-20T13:51:55.091Z,19.02
2017-09-20T13:53:03.638Z,19.05
2017-09-20T13:54:12.184Z,19.05
2017-09-20T13:55:21.058Z,19.05
2017-09-20T13:56:29.606Z,19.09
2017-09-20T13:57:38.481Z,19.1
2017-09-20T13:58:47.679Z,19.15
2017-09-20T13:59:56.232Z,19.16
2017-09-20T14:01:04.781Z,19.23
2017-09-20T14:02:13.668Z,19.25
2017-09-20T14:03:22.234Z,19.32
2017-09-20T14:04:30.785Z,19.3
2017-09-20T14:05:39.658Z,19.35
2017-09-20T14:06:48.226Z,19.45
2017-09-20T14:07:57.206Z,19.47
2017-09-20T14:09:05.754Z,19.53
2017-09-20T14:10:14.301Z,19.52
2017-09-20T14:11:23.501Z,19.52
2017-09-20T14:12:32.048Z,19.55
2017-09-20T14:13:40.596Z,19.55
2017-09-20T14:14:49.142Z,19.6
2017-09-20T14:15:58.090Z,19.55
2017-09-20T14:17:06.962Z,19.6
2017-09-20T14:18:15.830Z,19.56
2017-09-20T14:19:25.004Z,19.57
2017-09-20T14:20:33.875Z,19.56
2017-09-20T14:21:42.744Z,19.55
2017-09-20T14:22:51.617Z,19.49
2017-09-20T14:24:00.359Z,19.46
2017-09-20T14:25:09.452Z,19.45
2017-09-20T14:26:18.327Z,19.32
2017-09-20T14:27:26.877Z,19.3
2017-09-20T14:28:35.747Z,19.2
2017-09-20T14:29:44.296Z,19.12
2017-09-20T14:30:52.846Z,19.15
2017-09-20T14:32:02.052Z,18.97
2017-09-20T14:33:11.243Z,19.05
2017-09-20T14:34:19.791Z,18.93
2017-09-20T14:35:28.342Z,18.9
2017-09-20T14:36:37.214Z,18.9
2017-09-20T14:37:45.762Z,18.82
2017-09-20T14:38:54.310Z,18.9
2017-09-20T14:40:02.861Z,18.84
2017-09-20T14:41:11.743Z,18.82
2017-09-20T14:42:20.291Z,18.79
2017-09-20T14:43:29.485Z,18.74
2017-09-20T14:44:38.682Z,18.74
2017-09-20T14:45:47.548Z,18.68
2017-09-20T14:46:56.096Z,18.75
2017-09-20T14:48:04.965Z,18.75
2017-09-20T14:49:13.511Z,18.75
2017-09-20T14:50:22.063Z,18.71
2017-09-20T14:51:30.612Z,18.66